sensor_id;sensor_type;location;lat;lon;timestamp;P1;durP1;ratioP1;P2;durP2;ratioP2
65936;SDS011;52707;52.086;5.418;2023-04-03T00:00:24;3.03;;;1.40;;
65936;SDS011;52707;52.086;5.418;2023-04-03T00:02:50;8.07;;;1.85;;
65936;SDS011;52707;52.086;5.418;2023-04-03T00:05:17;1.73;;;0.98;;
65936;SDS011;52707;52.086;5.418;2023-04-03T00:07:43;2.67;;;1.50;;
65936;SDS011;52707;52.086;5.418;2023-04-03T00:10:09;3.65;;;1.63;;
65936;SDS011;52707;52.086;5.418;2023-04-03T00:12:36;3.72;;;1.45;;
65936;SDS011;52707;52.086;5.418;2023-04-03T00:15:02;1.83;;;1.35;;
65936;SDS011;52707;52.086;5.418;2023-04-03T00:17:29;2.25;;;1.60;;
65936;SDS011;52707;52.086;5.418;2023-04-03T00:19:55;2.45;;;1.60;;
65936;SDS011;52707;52.086;5.418;2023-04-03T00:22:22;2.45;;;1.38;;
65936;SDS011;52707;52.086;5.418;2023-04-03T00:24:48;2.60;;;1.20;;
65936;SDS011;52707;52.086;5.418;2023-04-03T00:27:14;5.70;;;1.60;;
65936;SDS011;52707;52.086;5.418;2023-04-03T00:29:41;3.80;;;1.60;;
65936;SDS011;52707;52.086;5.418;2023-04-03T00:32:08;2.05;;;1.30;;
65936;SDS011;52707;52.086;5.418;2023-04-03T00:34:34;1.60;;;1.40;;
65936;SDS011;52707;52.086;5.418;2023-04-03T00:37:00;3.47;;;1.25;;
65936;SDS011;52707;52.086;5.418;2023-04-03T00:39:27;2.60;;;1.25;;
65936;SDS011;52707;52.086;5.418;2023-04-03T00:41:53;4.25;;;1.52;;
65936;SDS011;52707;52.086;5.418;2023-04-03T00:47:02;7.15;;;1.77;;
65936;SDS011;52707;52.086;5.418;2023-04-03T00:49:29;1.85;;;1.40;;
65936;SDS011;52707;52.086;5.418;2023-04-03T00:51:56;2.22;;;1.30;;
65936;SDS011;52707;52.086;5.418;2023-04-03T00:54:23;2.60;;;1.38;;
65936;SDS011;52707;52.086;5.418;2023-04-03T00:56:51;2.00;;;1.30;;
65936;SDS011;52707;52.086;5.418;2023-04-03T00:59:20;2.78;;;1.40;;
65936;SDS011;52707;52.086;5.418;2023-04-03T01:01:50;1.40;;;1.15;;
65936;SDS011;52707;52.086;5.418;2023-04-03T01:04:26;3.28;;;1.92;;
65936;SDS011;52707;52.086;5.418;2023-04-03T01:06:54;2.83;;;1.60;;
65936;SDS011;52707;52.086;5.418;2023-04-03T01:09:21;6.75;;;1.77;;
65936;SDS011;52707;52.086;5.418;2023-04-03T01:11:48;2.85;;;1.45;;
65936;SDS011;52707;52.086;5.418;2023-04-03T01:14:14;3.10;;;1.70;;
65936;SDS011;52707;52.086;5.418;2023-04-03T01:16:41;6.32;;;1.50;;
65936;SDS011;52707;52.086;5.418;2023-04-03T01:19:07;3.58;;;1.40;;
65936;SDS011;52707;52.086;5.418;2023-04-03T01:27:05;4.47;;;1.60;;
65936;SDS011;52707;52.086;5.418;2023-04-03T01:29:32;2.85;;;1.30;;
65936;SDS011;52707;52.086;5.418;2023-04-03T01:31:59;2.17;;;1.40;;
65936;SDS011;52707;52.086;5.418;2023-04-03T01:34:27;3.85;;;1.67;;
65936;SDS011;52707;52.086;5.418;2023-04-03T01:36:54;4.18;;;1.98;;
65936;SDS011;52707;52.086;5.418;2023-04-03T01:39:20;2.13;;;1.55;;
65936;SDS011;52707;52.086;5.418;2023-04-03T01:41:48;2.20;;;1.40;;
65936;SDS011;52707;52.086;5.418;2023-04-03T01:44:14;5.93;;;1.92;;
65936;SDS011;52707;52.086;5.418;2023-04-03T01:46:41;3.38;;;1.58;;
65936;SDS011;52707;52.086;5.418;2023-04-03T01:49:08;4.00;;;1.60;;
65936;SDS011;52707;52.086;5.418;2023-04-03T01:51:35;3.60;;;1.33;;
65936;SDS011;52707;52.086;5.418;2023-04-03T01:54:01;2.72;;;1.30;;
65936;SDS011;52707;52.086;5.418;2023-04-03T01:56:28;2.72;;;1.52;;
65936;SDS011;52707;52.086;5.418;2023-04-03T01:58:54;4.15;;;1.52;;
65936;SDS011;52707;52.086;5.418;2023-04-03T02:01:21;2.88;;;1.58;;
65936;SDS011;52707;52.086;5.418;2023-04-03T02:03:47;5.30;;;1.70;;
65936;SDS011;52707;52.086;5.418;2023-04-03T02:06:14;5.22;;;1.70;;
65936;SDS011;52707;52.086;5.418;2023-04-03T02:08:40;5.13;;;1.75;;
65936;SDS011;52707;52.086;5.418;2023-04-03T02:11:07;3.88;;;1.65;;
65936;SDS011;52707;52.086;5.418;2023-04-03T02:13:34;9.30;;;2.03;;
65936;SDS011;52707;52.086;5.418;2023-04-03T02:16:05;4.40;;;1.52;;
65936;SDS011;52707;52.086;5.418;2023-04-03T02:18:32;3.90;;;1.80;;
65936;SDS011;52707;52.086;5.418;2023-04-03T02:20:58;2.83;;;1.58;;
65936;SDS011;52707;52.086;5.418;2023-04-03T02:23:24;4.18;;;1.70;;
65936;SDS011;52707;52.086;5.418;2023-04-03T02:25:50;3.53;;;1.63;;
65936;SDS011;52707;52.086;5.418;2023-04-03T02:28:17;5.18;;;2.28;;
65936;SDS011;52707;52.086;5.418;2023-04-03T02:30:43;5.10;;;1.60;;
65936;SDS011;52707;52.086;5.418;2023-04-03T02:33:09;9.98;;;2.00;;
65936;SDS011;52707;52.086;5.418;2023-04-03T02:35:36;3.65;;;1.35;;
65936;SDS011;52707;52.086;5.418;2023-04-03T02:38:03;4.50;;;1.77;;
65936;SDS011;52707;52.086;5.418;2023-04-03T02:40:29;3.00;;;1.80;;
65936;SDS011;52707;52.086;5.418;2023-04-03T02:42:55;3.45;;;1.63;;
65936;SDS011;52707;52.086;5.418;2023-04-03T02:45:22;6.15;;;2.70;;
65936;SDS011;52707;52.086;5.418;2023-04-03T02:47:48;4.63;;;1.90;;
65936;SDS011;52707;52.086;5.418;2023-04-03T02:50:14;4.05;;;1.80;;
65936;SDS011;52707;52.086;5.418;2023-04-03T02:52:41;3.47;;;1.70;;
65936;SDS011;52707;52.086;5.418;2023-04-03T02:55:07;3.78;;;2.45;;
65936;SDS011;52707;52.086;5.418;2023-04-03T02:57:34;4.72;;;1.50;;
65936;SDS011;52707;52.086;5.418;2023-04-03T03:00:02;3.90;;;1.48;;
65936;SDS011;52707;52.086;5.418;2023-04-03T03:02:29;3.83;;;1.88;;
65936;SDS011;52707;52.086;5.418;2023-04-03T03:04:55;2.67;;;1.77;;
65936;SDS011;52707;52.086;5.418;2023-04-03T03:07:21;2.17;;;1.55;;
65936;SDS011;52707;52.086;5.418;2023-04-03T03:09:48;1.90;;;1.50;;
65936;SDS011;52707;52.086;5.418;2023-04-03T03:12:14;2.47;;;2.10;;
65936;SDS011;52707;52.086;5.418;2023-04-03T03:14:41;4.13;;;1.65;;
65936;SDS011;52707;52.086;5.418;2023-04-03T03:17:08;4.97;;;1.40;;
65936;SDS011;52707;52.086;5.418;2023-04-03T03:19:35;8.15;;;1.83;;
65936;SDS011;52707;52.086;5.418;2023-04-03T03:22:01;6.10;;;2.38;;
65936;SDS011;52707;52.086;5.418;2023-04-03T03:24:28;3.08;;;1.70;;
65936;SDS011;52707;52.086;5.418;2023-04-03T03:26:54;3.33;;;1.90;;
65936;SDS011;52707;52.086;5.418;2023-04-03T03:29:21;5.55;;;1.95;;
65936;SDS011;52707;52.086;5.418;2023-04-03T03:31:47;6.75;;;2.30;;
65936;SDS011;52707;52.086;5.418;2023-04-03T03:34:14;3.78;;;1.60;;
65936;SDS011;52707;52.086;5.418;2023-04-03T03:36:40;4.15;;;1.90;;
65936;SDS011;52707;52.086;5.418;2023-04-03T03:39:07;4.93;;;2.00;;
65936;SDS011;52707;52.086;5.418;2023-04-03T03:41:33;6.47;;;1.90;;
65936;SDS011;52707;52.086;5.418;2023-04-03T03:44:00;4.35;;;1.60;;
65936;SDS011;52707;52.086;5.418;2023-04-03T03:46:26;4.75;;;2.92;;
65936;SDS011;52707;52.086;5.418;2023-04-03T03:48:52;3.83;;;1.83;;
65936;SDS011;52707;52.086;5.418;2023-04-03T03:51:19;2.15;;;1.70;;
65936;SDS011;52707;52.086;5.418;2023-04-03T03:53:45;3.20;;;1.70;;
65936;SDS011;52707;52.086;5.418;2023-04-03T03:56:11;5.05;;;1.70;;
65936;SDS011;52707;52.086;5.418;2023-04-03T03:58:38;4.80;;;2.13;;
65936;SDS011;52707;52.086;5.418;2023-04-03T04:01:05;5.03;;;2.05;;
65936;SDS011;52707;52.086;5.418;2023-04-03T04:03:32;1.83;;;1.73;;
65936;SDS011;52707;52.086;5.418;2023-04-03T04:05:59;4.85;;;1.90;;
65936;SDS011;52707;52.086;5.418;2023-04-03T04:08:25;4.60;;;2.08;;
65936;SDS011;52707;52.086;5.418;2023-04-03T04:10:52;5.18;;;2.20;;
65936;SDS011;52707;52.086;5.418;2023-04-03T04:13:18;5.38;;;2.00;;
65936;SDS011;52707;52.086;5.418;2023-04-03T04:15:45;4.32;;;2.05;;
65936;SDS011;52707;52.086;5.418;2023-04-03T04:18:11;5.78;;;2.10;;
65936;SDS011;52707;52.086;5.418;2023-04-03T04:20:37;8.50;;;2.13;;
65936;SDS011;52707;52.086;5.418;2023-04-03T04:23:04;7.22;;;1.90;;
65936;SDS011;52707;52.086;5.418;2023-04-03T04:25:30;4.90;;;2.08;;
65936;SDS011;52707;52.086;5.418;2023-04-03T04:27:57;5.32;;;2.30;;
65936;SDS011;52707;52.086;5.418;2023-04-03T04:30:23;6.43;;;2.47;;
65936;SDS011;52707;52.086;5.418;2023-04-03T04:32:49;7.10;;;2.10;;
65936;SDS011;52707;52.086;5.418;2023-04-03T04:35:16;6.10;;;1.98;;
65936;SDS011;52707;52.086;5.418;2023-04-03T04:37:42;7.75;;;2.40;;
65936;SDS011;52707;52.086;5.418;2023-04-03T04:40:09;9.75;;;1.90;;
65936;SDS011;52707;52.086;5.418;2023-04-03T04:42:36;4.47;;;2.42;;
65936;SDS011;52707;52.086;5.418;2023-04-03T04:45:02;3.97;;;2.10;;
65936;SDS011;52707;52.086;5.418;2023-04-03T04:47:29;6.18;;;2.65;;
65936;SDS011;52707;52.086;5.418;2023-04-03T04:49:55;4.35;;;2.13;;
65936;SDS011;52707;52.086;5.418;2023-04-03T04:52:22;8.35;;;3.13;;
65936;SDS011;52707;52.086;5.418;2023-04-03T04:54:48;4.97;;;1.95;;
65936;SDS011;52707;52.086;5.418;2023-04-03T04:57:14;10.48;;;2.50;;
65936;SDS011;52707;52.086;5.418;2023-04-03T04:59:41;5.93;;;2.17;;
65936;SDS011;52707;52.086;5.418;2023-04-03T05:02:08;6.25;;;2.30;;
65936;SDS011;52707;52.086;5.418;2023-04-03T05:04:34;4.47;;;2.00;;
65936;SDS011;52707;52.086;5.418;2023-04-03T05:07:02;7.03;;;1.98;;
65936;SDS011;52707;52.086;5.418;2023-04-03T05:09:28;5.95;;;2.25;;
65936;SDS011;52707;52.086;5.418;2023-04-03T05:11:55;2.65;;;2.00;;
65936;SDS011;52707;52.086;5.418;2023-04-03T05:14:22;3.05;;;1.80;;
65936;SDS011;52707;52.086;5.418;2023-04-03T05:16:49;3.65;;;2.10;;
65936;SDS011;52707;52.086;5.418;2023-04-03T05:19:20;7.03;;;2.22;;
65936;SDS011;52707;52.086;5.418;2023-04-03T05:21:46;6.00;;;2.58;;
65936;SDS011;52707;52.086;5.418;2023-04-03T05:24:13;9.98;;;3.05;;
65936;SDS011;52707;52.086;5.418;2023-04-03T05:26:40;6.82;;;2.30;;
65936;SDS011;52707;52.086;5.418;2023-04-03T05:29:06;12.25;;;2.72;;
65936;SDS011;52707;52.086;5.418;2023-04-03T05:31:33;3.25;;;2.03;;
65936;SDS011;52707;52.086;5.418;2023-04-03T05:33:59;8.07;;;2.58;;
65936;SDS011;52707;52.086;5.418;2023-04-03T05:36:26;4.35;;;2.20;;
65936;SDS011;52707;52.086;5.418;2023-04-03T05:38:52;5.60;;;2.65;;
65936;SDS011;52707;52.086;5.418;2023-04-03T05:41:19;7.40;;;2.10;;
65936;SDS011;52707;52.086;5.418;2023-04-03T05:43:47;10.65;;;2.60;;
65936;SDS011;52707;52.086;5.418;2023-04-03T05:46:17;7.15;;;2.45;;
65936;SDS011;52707;52.086;5.418;2023-04-03T05:48:44;15.95;;;3.13;;
65936;SDS011;52707;52.086;5.418;2023-04-03T05:51:21;7.53;;;2.53;;
65936;SDS011;52707;52.086;5.418;2023-04-03T05:53:48;4.70;;;2.35;;
65936;SDS011;52707;52.086;5.418;2023-04-03T05:56:16;6.28;;;2.20;;
65936;SDS011;52707;52.086;5.418;2023-04-03T05:58:42;3.70;;;2.15;;
65936;SDS011;52707;52.086;5.418;2023-04-03T06:01:08;7.22;;;2.40;;
65936;SDS011;52707;52.086;5.418;2023-04-03T06:03:35;7.15;;;2.33;;
65936;SDS011;52707;52.086;5.418;2023-04-03T06:06:05;3.30;;;2.30;;
65936;SDS011;52707;52.086;5.418;2023-04-03T06:08:32;4.25;;;2.13;;
65936;SDS011;52707;52.086;5.418;2023-04-03T06:10:59;11.55;;;2.42;;
65936;SDS011;52707;52.086;5.418;2023-04-03T06:13:28;10.25;;;2.65;;
65936;SDS011;52707;52.086;5.418;2023-04-03T06:15:54;6.90;;;2.30;;
65936;SDS011;52707;52.086;5.418;2023-04-03T06:18:21;5.50;;;2.30;;
65936;SDS011;52707;52.086;5.418;2023-04-03T06:20:48;10.80;;;2.35;;
65936;SDS011;52707;52.086;5.418;2023-04-03T06:23:14;8.48;;;2.50;;
65936;SDS011;52707;52.086;5.418;2023-04-03T06:25:40;6.85;;;2.72;;
65936;SDS011;52707;52.086;5.418;2023-04-03T06:28:07;6.22;;;2.28;;
65936;SDS011;52707;52.086;5.418;2023-04-03T06:30:35;6.07;;;2.30;;
65936;SDS011;52707;52.086;5.418;2023-04-03T06:33:04;9.95;;;3.30;;
65936;SDS011;52707;52.086;5.418;2023-04-03T06:35:30;7.05;;;2.55;;
65936;SDS011;52707;52.086;5.418;2023-04-03T06:37:57;5.50;;;2.33;;
65936;SDS011;52707;52.086;5.418;2023-04-03T06:40:25;10.93;;;2.40;;
65936;SDS011;52707;52.086;5.418;2023-04-03T06:42:52;10.32;;;2.40;;
65936;SDS011;52707;52.086;5.418;2023-04-03T06:45:18;9.48;;;2.70;;
65936;SDS011;52707;52.086;5.418;2023-04-03T06:47:45;9.60;;;2.90;;
65936;SDS011;52707;52.086;5.418;2023-04-03T06:50:13;5.88;;;2.15;;
65936;SDS011;52707;52.086;5.418;2023-04-03T06:52:41;8.05;;;2.20;;
65936;SDS011;52707;52.086;5.418;2023-04-03T06:55:07;6.97;;;2.55;;
65936;SDS011;52707;52.086;5.418;2023-04-03T06:57:34;6.50;;;2.30;;
65936;SDS011;52707;52.086;5.418;2023-04-03T07:00:01;5.13;;;1.75;;
65936;SDS011;52707;52.086;5.418;2023-04-03T07:02:27;7.32;;;2.40;;
65936;SDS011;52707;52.086;5.418;2023-04-03T07:04:53;9.00;;;2.35;;
65936;SDS011;52707;52.086;5.418;2023-04-03T07:07:20;4.15;;;2.00;;
65936;SDS011;52707;52.086;5.418;2023-04-03T07:09:46;5.50;;;2.20;;
65936;SDS011;52707;52.086;5.418;2023-04-03T07:12:14;11.23;;;2.53;;
65936;SDS011;52707;52.086;5.418;2023-04-03T07:14:41;7.28;;;2.40;;
65936;SDS011;52707;52.086;5.418;2023-04-03T07:17:07;10.32;;;2.47;;
65936;SDS011;52707;52.086;5.418;2023-04-03T07:19:33;8.20;;;2.33;;
65936;SDS011;52707;52.086;5.418;2023-04-03T07:22:00;6.55;;;2.35;;
65936;SDS011;52707;52.086;5.418;2023-04-03T07:24:26;7.38;;;2.42;;
65936;SDS011;52707;52.086;5.418;2023-04-03T07:26:52;5.43;;;2.13;;
65936;SDS011;52707;52.086;5.418;2023-04-03T07:29:19;7.05;;;2.70;;
65936;SDS011;52707;52.086;5.418;2023-04-03T07:31:47;6.95;;;2.42;;
65936;SDS011;52707;52.086;5.418;2023-04-03T07:34:13;6.65;;;2.67;;
65936;SDS011;52707;52.086;5.418;2023-04-03T07:36:40;5.50;;;2.38;;
65936;SDS011;52707;52.086;5.418;2023-04-03T07:39:06;7.88;;;2.15;;
65936;SDS011;52707;52.086;5.418;2023-04-03T07:41:34;6.97;;;2.47;;
65936;SDS011;52707;52.086;5.418;2023-04-03T07:44:01;10.63;;;2.80;;
65936;SDS011;52707;52.086;5.418;2023-04-03T07:46:28;9.40;;;2.92;;
65936;SDS011;52707;52.086;5.418;2023-04-03T07:48:57;4.05;;;2.22;;
65936;SDS011;52707;52.086;5.418;2023-04-03T07:51:24;2.95;;;1.80;;
65936;SDS011;52707;52.086;5.418;2023-04-03T07:53:52;5.22;;;2.03;;
65936;SDS011;52707;52.086;5.418;2023-04-03T07:56:18;5.75;;;1.90;;
65936;SDS011;52707;52.086;5.418;2023-04-03T07:58:45;6.47;;;2.47;;
65936;SDS011;52707;52.086;5.418;2023-04-03T08:01:11;6.10;;;2.03;;
65936;SDS011;52707;52.086;5.418;2023-04-03T08:03:38;8.95;;;2.67;;
65936;SDS011;52707;52.086;5.418;2023-04-03T08:06:07;12.45;;;1.80;;
65936;SDS011;52707;52.086;5.418;2023-04-03T08:08:40;13.95;;;3.10;;
65936;SDS011;52707;52.086;5.418;2023-04-03T08:11:07;3.75;;;1.95;;
65936;SDS011;52707;52.086;5.418;2023-04-03T08:13:35;7.47;;;1.80;;
65936;SDS011;52707;52.086;5.418;2023-04-03T08:16:09;11.48;;;2.30;;
65936;SDS011;52707;52.086;5.418;2023-04-03T08:18:35;9.05;;;2.10;;
65936;SDS011;52707;52.086;5.418;2023-04-03T08:21:05;7.90;;;2.30;;
65936;SDS011;52707;52.086;5.418;2023-04-03T08:23:31;3.80;;;1.45;;
65936;SDS011;52707;52.086;5.418;2023-04-03T08:25:58;8.77;;;1.80;;
65936;SDS011;52707;52.086;5.418;2023-04-03T08:28:24;8.02;;;2.10;;
65936;SDS011;52707;52.086;5.418;2023-04-03T08:30:50;4.38;;;1.73;;
65936;SDS011;52707;52.086;5.418;2023-04-03T08:33:17;6.65;;;1.83;;
65936;SDS011;52707;52.086;5.418;2023-04-03T08:35:43;3.40;;;1.50;;
65936;SDS011;52707;52.086;5.418;2023-04-03T08:38:10;6.13;;;1.60;;
65936;SDS011;52707;52.086;5.418;2023-04-03T08:40:37;3.70;;;1.38;;
65936;SDS011;52707;52.086;5.418;2023-04-03T08:45:49;7.85;;;1.60;;
65936;SDS011;52707;52.086;5.418;2023-04-03T08:48:19;4.35;;;1.52;;
65936;SDS011;52707;52.086;5.418;2023-04-03T08:50:47;2.72;;;1.30;;
65936;SDS011;52707;52.086;5.418;2023-04-03T08:53:15;3.55;;;1.02;;
65936;SDS011;52707;52.086;5.418;2023-04-03T08:55:43;4.25;;;1.13;;
65936;SDS011;52707;52.086;5.418;2023-04-03T08:58:12;2.67;;;1.00;;
65936;SDS011;52707;52.086;5.418;2023-04-03T09:00:49;3.13;;;1.15;;
65936;SDS011;52707;52.086;5.418;2023-04-03T09:03:17;2.17;;;0.80;;
65936;SDS011;52707;52.086;5.418;2023-04-03T09:10:43;2.20;;;1.02;;
65936;SDS011;52707;52.086;5.418;2023-04-03T09:13:13;1.00;;;0.98;;
65936;SDS011;52707;52.086;5.418;2023-04-03T09:15:44;1.85;;;0.80;;
65936;SDS011;52707;52.086;5.418;2023-04-03T09:20:56;0.75;;;0.57;;
65936;SDS011;52707;52.086;5.418;2023-04-03T09:23:34;5.63;;;1.40;;
65936;SDS011;52707;52.086;5.418;2023-04-03T09:26:05;1.50;;;0.77;;
65936;SDS011;52707;52.086;5.418;2023-04-03T09:28:34;1.48;;;0.70;;
65936;SDS011;52707;52.086;5.418;2023-04-03T09:31:22;1.38;;;0.70;;
65936;SDS011;52707;52.086;5.418;2023-04-03T09:33:49;7.75;;;0.60;;
65936;SDS011;52707;52.086;5.418;2023-04-03T09:39:07;1.17;;;0.60;;
65936;SDS011;52707;52.086;5.418;2023-04-03T09:41:35;2.78;;;0.90;;
65936;SDS011;52707;52.086;5.418;2023-04-03T09:44:02;0.55;;;0.55;;
65936;SDS011;52707;52.086;5.418;2023-04-03T09:46:30;1.90;;;0.50;;
65936;SDS011;52707;52.086;5.418;2023-04-03T09:48:58;1.60;;;0.60;;
65936;SDS011;52707;52.086;5.418;2023-04-03T09:51:34;3.42;;;0.70;;
65936;SDS011;52707;52.086;5.418;2023-04-03T09:54:01;1.73;;;0.60;;
65936;SDS011;52707;52.086;5.418;2023-04-03T09:56:50;10.18;;;0.50;;
65936;SDS011;52707;52.086;5.418;2023-04-03T09:59:17;5.82;;;0.70;;
65936;SDS011;52707;52.086;5.418;2023-04-03T10:01:56;1.42;;;0.65;;
65936;SDS011;52707;52.086;5.418;2023-04-03T10:04:24;2.55;;;0.93;;
65936;SDS011;52707;52.086;5.418;2023-04-03T10:06:52;3.70;;;0.93;;
65936;SDS011;52707;52.086;5.418;2023-04-03T10:09:21;1.42;;;0.50;;
65936;SDS011;52707;52.086;5.418;2023-04-03T10:12:04;3.63;;;0.82;;
65936;SDS011;52707;52.086;5.418;2023-04-03T10:14:32;1.45;;;0.70;;
65936;SDS011;52707;52.086;5.418;2023-04-03T10:17:02;3.25;;;0.60;;
65936;SDS011;52707;52.086;5.418;2023-04-03T10:19:50;0.45;;;0.45;;
65936;SDS011;52707;52.086;5.418;2023-04-03T10:24:59;0.70;;;0.32;;
65936;SDS011;52707;52.086;5.418;2023-04-03T10:27:30;1.10;;;0.40;;
65936;SDS011;52707;52.086;5.418;2023-04-03T10:30:17;0.95;;;0.60;;
65936;SDS011;52707;52.086;5.418;2023-04-03T10:38:01;0.50;;;0.50;;
65936;SDS011;52707;52.086;5.418;2023-04-03T10:43:08;1.42;;;0.57;;
65936;SDS011;52707;52.086;5.418;2023-04-03T10:51:00;9.45;;;0.85;;
65936;SDS011;52707;52.086;5.418;2023-04-03T10:53:34;8.25;;;0.98;;
65936;SDS011;52707;52.086;5.418;2023-04-03T10:56:15;1.48;;;0.70;;
65936;SDS011;52707;52.086;5.418;2023-04-03T10:58:48;2.83;;;0.70;;
65936;SDS011;52707;52.086;5.418;2023-04-03T11:01:19;4.25;;;0.65;;
65936;SDS011;52707;52.086;5.418;2023-04-03T11:03:47;5.38;;;1.05;;
65936;SDS011;52707;52.086;5.418;2023-04-03T11:06:16;2.08;;;1.00;;
65936;SDS011;52707;52.086;5.418;2023-04-03T11:08:48;2.22;;;0.68;;
65936;SDS011;52707;52.086;5.418;2023-04-03T11:11:19;0.73;;;0.70;;
65936;SDS011;52707;52.086;5.418;2023-04-03T11:13:59;15.77;;;1.10;;
65936;SDS011;52707;52.086;5.418;2023-04-03T11:16:28;1.97;;;0.90;;
65936;SDS011;52707;52.086;5.418;2023-04-03T11:23:56;2.97;;;0.75;;
65936;SDS011;52707;52.086;5.418;2023-04-03T11:26:22;2.35;;;0.70;;
65936;SDS011;52707;52.086;5.418;2023-04-03T11:28:56;6.93;;;0.80;;
65936;SDS011;52707;52.086;5.418;2023-04-03T11:36:47;3.13;;;0.63;;
65936;SDS011;52707;52.086;5.418;2023-04-03T11:39:34;1.17;;;0.50;;
65936;SDS011;52707;52.086;5.418;2023-04-03T11:44:39;1.48;;;0.70;;
65936;SDS011;52707;52.086;5.418;2023-04-03T11:47:06;1.13;;;0.63;;
65936;SDS011;52707;52.086;5.418;2023-04-03T12:08:26;4.68;;;1.00;;
65936;SDS011;52707;52.086;5.418;2023-04-03T12:16:32;1.90;;;0.80;;
65936;SDS011;52707;52.086;5.418;2023-04-03T12:19:01;5.32;;;1.02;;
65936;SDS011;52707;52.086;5.418;2023-04-03T12:26:25;1.40;;;1.00;;
65936;SDS011;52707;52.086;5.418;2023-04-03T12:29:10;0.67;;;0.67;;
65936;SDS011;52707;52.086;5.418;2023-04-03T12:34:26;2.35;;;1.20;;
65936;SDS011;52707;52.086;5.418;2023-04-03T12:37:00;1.30;;;0.90;;
65936;SDS011;52707;52.086;5.418;2023-04-03T12:42:01;4.95;;;0.90;;
65936;SDS011;52707;52.086;5.418;2023-04-03T12:44:40;1.25;;;0.80;;
65936;SDS011;52707;52.086;5.418;2023-04-03T12:47:17;3.47;;;1.20;;
65936;SDS011;52707;52.086;5.418;2023-04-03T12:49:45;2.97;;;1.20;;
65936;SDS011;52707;52.086;5.418;2023-04-03T12:52:35;3.28;;;1.15;;
65936;SDS011;52707;52.086;5.418;2023-04-03T12:55:00;9.43;;;0.95;;
65936;SDS011;52707;52.086;5.418;2023-04-03T12:57:30;1.65;;;0.82;;
65936;SDS011;52707;52.086;5.418;2023-04-03T12:59:57;1.42;;;0.80;;
65936;SDS011;52707;52.086;5.418;2023-04-03T13:02:24;2.05;;;1.00;;
65936;SDS011;52707;52.086;5.418;2023-04-03T13:04:55;1.33;;;0.68;;
65936;SDS011;52707;52.086;5.418;2023-04-03T13:07:25;4.07;;;1.00;;
65936;SDS011;52707;52.086;5.418;2023-04-03T13:09:55;2.65;;;0.90;;
65936;SDS011;52707;52.086;5.418;2023-04-03T13:12:21;1.30;;;0.73;;
65936;SDS011;52707;52.086;5.418;2023-04-03T13:14:55;3.40;;;0.98;;
65936;SDS011;52707;52.086;5.418;2023-04-03T13:17:22;1.35;;;0.80;;
65936;SDS011;52707;52.086;5.418;2023-04-03T13:19:48;1.13;;;0.80;;
65936;SDS011;52707;52.086;5.418;2023-04-03T13:22:28;2.47;;;0.90;;
65936;SDS011;52707;52.086;5.418;2023-04-03T13:24:57;2.38;;;0.90;;
65936;SDS011;52707;52.086;5.418;2023-04-03T13:27:25;5.18;;;1.30;;
65936;SDS011;52707;52.086;5.418;2023-04-03T13:29:52;5.03;;;1.40;;
65936;SDS011;52707;52.086;5.418;2023-04-03T13:32:21;5.13;;;1.25;;
65936;SDS011;52707;52.086;5.418;2023-04-03T13:34:49;9.82;;;1.13;;
65936;SDS011;52707;52.086;5.418;2023-04-03T13:37:23;3.38;;;1.10;;
65936;SDS011;52707;52.086;5.418;2023-04-03T13:40:04;4.47;;;1.30;;
65936;SDS011;52707;52.086;5.418;2023-04-03T13:42:40;1.60;;;0.80;;
65936;SDS011;52707;52.086;5.418;2023-04-03T13:47:38;2.53;;;1.00;;
65936;SDS011;52707;52.086;5.418;2023-04-03T13:52:41;2.13;;;0.85;;
65936;SDS011;52707;52.086;5.418;2023-04-03T14:03:13;1.50;;;1.00;;
65936;SDS011;52707;52.086;5.418;2023-04-03T14:05:40;1.85;;;0.90;;
65936;SDS011;52707;52.086;5.418;2023-04-03T14:08:06;1.48;;;1.02;;
65936;SDS011;52707;52.086;5.418;2023-04-03T14:10:33;4.00;;;1.10;;
65936;SDS011;52707;52.086;5.418;2023-04-03T14:12:59;5.45;;;1.20;;
65936;SDS011;52707;52.086;5.418;2023-04-03T14:15:27;3.65;;;1.30;;
65936;SDS011;52707;52.086;5.418;2023-04-03T14:17:54;7.97;;;1.48;;
65936;SDS011;52707;52.086;5.418;2023-04-03T14:20:22;2.88;;;1.00;;
65936;SDS011;52707;52.086;5.418;2023-04-03T14:22:49;5.78;;;1.55;;
65936;SDS011;52707;52.086;5.418;2023-04-03T14:25:15;4.40;;;1.30;;
65936;SDS011;52707;52.086;5.418;2023-04-03T14:27:43;1.95;;;1.02;;
65936;SDS011;52707;52.086;5.418;2023-04-03T14:30:14;3.63;;;1.30;;
65936;SDS011;52707;52.086;5.418;2023-04-03T14:32:41;3.33;;;1.08;;
65936;SDS011;52707;52.086;5.418;2023-04-03T14:35:10;4.72;;;1.20;;
65936;SDS011;52707;52.086;5.418;2023-04-03T14:37:36;2.67;;;1.17;;
65936;SDS011;52707;52.086;5.418;2023-04-03T14:40:03;2.78;;;1.10;;
65936;SDS011;52707;52.086;5.418;2023-04-03T14:42:32;4.45;;;1.50;;
65936;SDS011;52707;52.086;5.418;2023-04-03T14:44:59;2.50;;;1.60;;
65936;SDS011;52707;52.086;5.418;2023-04-03T14:47:27;2.08;;;1.20;;
65936;SDS011;52707;52.086;5.418;2023-04-03T14:49:57;3.85;;;1.40;;
65936;SDS011;52707;52.086;5.418;2023-04-03T14:52:25;2.58;;;1.23;;
65936;SDS011;52707;52.086;5.418;2023-04-03T14:54:52;6.82;;;1.60;;
65936;SDS011;52707;52.086;5.418;2023-04-03T14:57:19;3.03;;;1.05;;
65936;SDS011;52707;52.086;5.418;2023-04-03T14:59:46;2.50;;;1.30;;
65936;SDS011;52707;52.086;5.418;2023-04-03T15:02:23;1.08;;;0.93;;
65936;SDS011;52707;52.086;5.418;2023-04-03T15:04:50;7.65;;;1.08;;
65936;SDS011;52707;52.086;5.418;2023-04-03T15:07:18;5.65;;;1.33;;
65936;SDS011;52707;52.086;5.418;2023-04-03T15:09:45;3.00;;;1.50;;
65936;SDS011;52707;52.086;5.418;2023-04-03T15:12:11;2.63;;;1.30;;
65936;SDS011;52707;52.086;5.418;2023-04-03T15:14:39;4.75;;;1.17;;
65936;SDS011;52707;52.086;5.418;2023-04-03T15:17:22;2.85;;;1.38;;
65936;SDS011;52707;52.086;5.418;2023-04-03T15:19:49;3.88;;;1.63;;
65936;SDS011;52707;52.086;5.418;2023-04-03T15:22:17;4.47;;;1.15;;
65936;SDS011;52707;52.086;5.418;2023-04-03T15:24:44;5.20;;;1.45;;
65936;SDS011;52707;52.086;5.418;2023-04-03T15:27:10;2.33;;;1.35;;
65936;SDS011;52707;52.086;5.418;2023-04-03T15:29:38;4.35;;;1.50;;
65936;SDS011;52707;52.086;5.418;2023-04-03T15:32:05;6.20;;;1.70;;
65936;SDS011;52707;52.086;5.418;2023-04-03T15:34:31;2.95;;;1.35;;
65936;SDS011;52707;52.086;5.418;2023-04-03T15:36:58;3.00;;;1.20;;
65936;SDS011;52707;52.086;5.418;2023-04-03T15:39:24;3.08;;;1.40;;
65936;SDS011;52707;52.086;5.418;2023-04-03T15:41:51;5.45;;;1.35;;
65936;SDS011;52707;52.086;5.418;2023-04-03T15:44:18;3.60;;;1.33;;
65936;SDS011;52707;52.086;5.418;2023-04-03T15:46:45;4.18;;;1.70;;
65936;SDS011;52707;52.086;5.418;2023-04-03T15:49:12;4.90;;;1.42;;
65936;SDS011;52707;52.086;5.418;2023-04-03T15:51:40;2.97;;;1.50;;
65936;SDS011;52707;52.086;5.418;2023-04-03T15:54:07;4.05;;;1.40;;
65936;SDS011;52707;52.086;5.418;2023-04-03T15:56:33;5.90;;;1.50;;
65936;SDS011;52707;52.086;5.418;2023-04-03T15:59:00;2.30;;;1.30;;
65936;SDS011;52707;52.086;5.418;2023-04-03T16:01:26;2.97;;;1.40;;
65936;SDS011;52707;52.086;5.418;2023-04-03T16:03:53;7.95;;;1.70;;
65936;SDS011;52707;52.086;5.418;2023-04-03T16:06:19;3.13;;;1.23;;
65936;SDS011;52707;52.086;5.418;2023-04-03T16:08:46;3.85;;;1.63;;
65936;SDS011;52707;52.086;5.418;2023-04-03T16:11:14;5.95;;;1.65;;
65936;SDS011;52707;52.086;5.418;2023-04-03T16:13:40;3.72;;;1.45;;
65936;SDS011;52707;52.086;5.418;2023-04-03T16:16:06;2.35;;;1.25;;
65936;SDS011;52707;52.086;5.418;2023-04-03T16:18:34;6.25;;;1.70;;
65936;SDS011;52707;52.086;5.418;2023-04-03T16:21:00;4.75;;;1.35;;
65936;SDS011;52707;52.086;5.418;2023-04-03T16:23:29;3.78;;;1.55;;
65936;SDS011;52707;52.086;5.418;2023-04-03T16:25:55;3.88;;;1.67;;
65936;SDS011;52707;52.086;5.418;2023-04-03T16:28:21;12.25;;;1.50;;
65936;SDS011;52707;52.086;5.418;2023-04-03T16:30:48;3.70;;;1.67;;